Time,TemperatureF,DewpointF,PressureIn,WindDirection,WindDirectionDegrees,WindSpeedMPH,WindSpeedGustMPH,Humidity,HourlyPrecipIn,Conditions,Clouds,dailyrainin,SoftwareType,DateUTC
2013-05-29 00:02:00,48.0,48.0,-100.00,East,100,9.0,11.0,100,-99.99,,,-99.99,,2013-05-29 04:02:00,
2013-05-29 00:12:00,48.0,48.0,-100.00,East,100,9.0,11.0,100,-99.99,,,-99.99,,2013-05-29 04:12:00,
2013-05-29 00:22:00,48.0,48.0,-100.00,East,100,9.0,11.0,100,-99.99,,,-99.99,,2013-05-29 04:22:00,
2013-05-29 00:32:00,48.0,48.0,-100.00,East,100,9.0,11.0,100,-99.99,,,-99.99,,2013-05-29 04:32:00,
2013-05-29 00:42:00,47.0,47.0,-100.00,East,100,9.0,11.0,100,-99.99,,,-99.99,,2013-05-29 04:42:00,
2013-05-29 00:52:00,47.0,47.0,-100.00,East,100,9.0,11.0,100,-99.99,,,-99.99,,2013-05-29 04:52:00,
2013-05-29 01:02:00,47.0,47.0,-100.00,East,100,9.0,11.0,100,-99.99,,,-99.99,,2013-05-29 05:02:00,
2013-05-29 01:11:00,47.0,47.0,-100.00,East,100,9.0,11.0,100,-99.99,,,-99.99,,2013-05-29 05:11:00,
2013-05-29 01:21:00,48.0,48.0,-100.00,East,100,9.0,11.0,100,-99.99,,,-99.99,,2013-05-29 05:21:00,
2013-05-29 01:32:00,48.0,48.0,-100.00,East,100,9.0,9.0,100,-99.99,,,-99.99,,2013-05-29 05:32:00,
2013-05-29 01:41:00,48.0,48.0,-100.00,East,100,7.0,9.0,100,-99.99,,,-99.99,,2013-05-29 05:41:00,
2013-05-29 01:52:00,48.0,48.0,-100.00,ESE,110,7.0,9.0,100,-99.99,,,-99.99,,2013-05-29 05:52:00,
2013-05-29 02:01:00,48.0,48.0,-100.00,ESE,110,7.0,9.0,100,-99.99,,,-99.99,,2013-05-29 06:01:00,
2013-05-29 02:11:00,48.0,48.0,-100.00,ESE,110,7.0,9.0,100,-99.99,,,-99.99,,2013-05-29 06:11:00,
2013-05-29 02:21:00,46.0,46.0,-100.00,SSE,150,4.0,4.0,100,-99.99,,,-99.99,,2013-05-29 06:21:00,
2013-05-29 02:31:00,46.0,46.0,-100.00,SSE,150,4.0,4.0,100,-99.99,,,-99.99,,2013-05-29 06:31:00,
2013-05-29 02:41:00,47.0,47.0,-100.00,SE,130,4.0,4.0,100,-99.99,,,-99.99,,2013-05-29 06:41:00,
2013-05-29 02:51:00,47.0,47.0,-100.00,SE,130,4.0,4.0,100,-99.99,,,-99.99,,2013-05-29 06:51:00,
2013-05-29 03:01:00,48.0,48.0,-100.00,SE,130,2.0,4.0,100,-99.99,,,-99.99,,2013-05-29 07:01:00,
2013-05-29 03:11:00,47.0,47.0,-100.00,SE,140,2.0,4.0,100,-99.99,,,-99.99,,2013-05-29 07:11:00,
2013-05-29 03:21:00,47.0,47.0,-100.00,SW,220,7.0,9.0,100,-99.99,,,-99.99,,2013-05-29 07:21:00,
2013-05-29 03:41:00,45.0,45.0,-100.00,WSW,240,9.0,9.0,100,-99.99,,,-99.99,,2013-05-29 07:41:00,
2013-05-29 03:52:00,45.0,45.0,-100.00,WSW,240,9.0,9.0,100,-99.99,,,-99.99,,2013-05-29 07:52:00,
2013-05-29 04:02:00,45.0,45.0,-100.00,West,260,7.0,9.0,100,-99.99,,,-99.99,,2013-05-29 08:02:00,
2013-05-29 04:11:00,45.0,45.0,-100.00,West,270,9.0,11.0,100,-99.99,,,-99.99,,2013-05-29 08:11:00,
2013-05-29 04:21:00,45.0,45.0,-100.00,West,270,9.0,11.0,100,-99.99,,,-99.99,,2013-05-29 08:21:00,
2013-05-29 04:31:00,44.0,44.0,-100.00,West,270,9.0,11.0,100,-99.99,,,-99.99,,2013-05-29 08:31:00,
2013-05-29 04:41:00,44.0,44.0,-100.00,West,260,11.0,13.0,100,-99.99,,,-99.99,,2013-05-29 08:41:00,
2013-05-29 04:51:00,44.0,44.0,-100.00,West,260,11.0,13.0,100,-99.99,,,-99.99,,2013-05-29 08:51:00,
2013-05-29 05:01:00,44.0,44.0,-100.00,WSW,250,13.0,16.0,100,-99.99,,,-99.99,,2013-05-29 09:01:00,
2013-05-29 05:11:00,44.0,44.0,-100.00,WSW,250,13.0,16.0,100,-99.99,,,-99.99,,2013-05-29 09:11:00,
2013-05-29 05:21:00,43.0,43.0,-100.00,West,260,11.0,13.0,100,-99.99,,,-99.99,,2013-05-29 09:21:00,
2013-05-29 05:32:00,43.0,43.0,-100.00,WSW,250,11.0,13.0,100,-99.99,,,-99.99,,2013-05-29 09:32:00,
2013-05-29 05:42:00,43.0,43.0,-100.00,WSW,250,9.0,9.0,100,-99.99,,,-99.99,,2013-05-29 09:42:00,
2013-05-29 05:52:00,43.0,43.0,-100.00,WSW,250,9.0,9.0,100,-99.99,,,-99.99,,2013-05-29 09:52:00,
2013-05-29 06:02:00,43.0,43.0,-100.00,WSW,240,7.0,9.0,100,-99.99,,,-99.99,,2013-05-29 10:02:00,
2013-05-29 06:12:00,44.0,44.0,-100.00,SW,230,4.0,7.0,100,-99.99,,,-99.99,,2013-05-29 10:12:00,
2013-05-29 06:22:00,44.0,44.0,-100.00,SW,230,4.0,7.0,100,-99.99,,,-99.99,,2013-05-29 10:22:00,
2013-05-29 06:32:00,44.0,44.0,-100.00,West,270,4.0,4.0,100,-99.99,,,-99.99,,2013-05-29 10:32:00,
2013-05-29 06:42:00,44.0,44.0,-100.00,WSW,250,4.0,7.0,100,-99.99,,,-99.99,,2013-05-29 10:42:00,
2013-05-29 06:52:00,44.0,44.0,-100.00,WSW,250,4.0,7.0,100,-99.99,,,-99.99,,2013-05-29 10:52:00,
2013-05-29 07:02:00,43.0,43.0,-100.00,SW,230,4.0,7.0,100,-99.99,,,-99.99,,2013-05-29 11:02:00,
2013-05-29 07:11:00,46.0,46.0,-100.00,WSW,240,7.0,7.0,100,-99.99,,,-99.99,,2013-05-29 11:11:00,
2013-05-29 07:21:00,45.0,45.0,-100.00,West,280,4.0,7.0,100,-99.99,,,-99.99,,2013-05-29 11:21:00,
2013-05-29 07:32:00,43.0,43.0,-100.00,West,280,7.0,7.0,100,-99.99,,,-99.99,,2013-05-29 11:32:00,
2013-05-29 07:41:00,43.0,43.0,-100.00,WSW,250,9.0,9.0,100,-99.99,,,-99.99,,2013-05-29 11:41:00,
2013-05-29 07:51:00,43.0,43.0,-100.00,WSW,250,9.0,9.0,100,-99.99,,,-99.99,,2013-05-29 11:51:00,
2013-05-29 08:01:00,44.0,44.0,-100.00,WSW,250,7.0,9.0,100,-99.99,,,-99.99,,2013-05-29 12:01:00,
2013-05-29 08:11:00,45.0,45.0,-100.00,WSW,250,7.0,9.0,100,-99.99,,,-99.99,,2013-05-29 12:11:00,
2013-05-29 08:21:00,45.0,45.0,-100.00,WSW,250,4.0,7.0,100,-99.99,,,-99.99,,2013-05-29 12:21:00,
2013-05-29 08:31:00,45.0,45.0,-100.00,West,260,4.0,7.0,100,-99.99,,,-99.99,,2013-05-29 12:31:00,
2013-05-29 08:41:00,45.0,45.0,-100.00,West,270,4.0,7.0,100,-99.99,,,-99.99,,2013-05-29 12:41:00,
2013-05-29 08:51:00,44.0,44.0,-100.00,West,260,4.0,7.0,100,-99.99,,,-99.99,,2013-05-29 12:51:00,
2013-05-29 09:01:00,44.0,44.0,-100.00,West,260,7.0,9.0,100,-99.99,,,-99.99,,2013-05-29 13:01:00,
2013-05-29 09:11:00,44.0,44.0,-100.00,West,260,4.0,7.0,100,-99.99,,,-99.99,,2013-05-29 13:11:00,
2013-05-29 09:21:00,45.0,45.0,-100.00,WSW,250,7.0,7.0,100,-99.99,,,-99.99,,2013-05-29 13:21:00,
2013-05-29 09:31:00,45.0,45.0,-100.00,WSW,250,7.0,7.0,100,-99.99,,,-99.99,,2013-05-29 13:31:00,
2013-05-29 09:42:00,45.0,45.0,-100.00,WSW,240,7.0,9.0,100,-99.99,,,-99.99,,2013-05-29 13:42:00,
2013-05-29 09:52:00,45.0,45.0,-100.00,WSW,240,7.0,9.0,100,-99.99,,,-99.99,,2013-05-29 13:52:00,
2013-05-29 10:01:00,45.0,45.0,-100.00,WSW,250,7.0,7.0,100,-99.99,,,-99.99,,2013-05-29 14:01:00,
2013-05-29 10:11:00,45.0,45.0,-100.00,West,260,7.0,9.0,100,-99.99,,,-99.99,,2013-05-29 14:11:00,
2013-05-29 10:21:00,45.0,45.0,-100.00,West,260,7.0,9.0,100,-99.99,,,-99.99,,2013-05-29 14:21:00,
2013-05-29 10:31:00,45.0,45.0,-100.00,WSW,250,9.0,9.0,100,-99.99,,,-99.99,,2013-05-29 14:31:00,
2013-05-29 10:41:00,46.0,46.0,-100.00,WSW,240,9.0,11.0,100,-99.99,,,-99.99,,2013-05-29 14:41:00,
2013-05-29 10:51:00,46.0,46.0,-100.00,WSW,240,9.0,11.0,100,-99.99,,,-99.99,,2013-05-29 14:51:00,
2013-05-29 11:01:00,45.0,45.0,-100.00,WSW,250,9.0,9.0,100,-99.99,,,-99.99,,2013-05-29 15:01:00,
2013-05-29 11:11:00,45.0,45.0,-100.00,West,260,7.0,7.0,100,-99.99,,,-99.99,,2013-05-29 15:11:00,
2013-05-29 11:21:00,45.0,45.0,-100.00,West,260,7.0,7.0,100,-99.99,,,-99.99,,2013-05-29 15:21:00,
2013-05-29 11:32:00,45.0,45.0,-100.00,West,270,7.0,7.0,100,-99.99,,,-99.99,,2013-05-29 15:32:00,
2013-05-29 11:42:00,46.0,46.0,-100.00,West,260,7.0,7.0,100,-99.99,,,-99.99,,2013-05-29 15:42:00,
2013-05-29 11:52:00,46.0,46.0,-100.00,West,260,7.0,7.0,100,-99.99,,,-99.99,,2013-05-29 15:52:00,
2013-05-29 12:03:00,45.0,45.0,-100.00,WSW,240,4.0,7.0,100,-99.99,,,-99.99,,2013-05-29 16:03:00,
2013-05-29 12:12:00,45.0,45.0,-100.00,West,270,4.0,4.0,100,-99.99,,,-99.99,,2013-05-29 16:12:00,
2013-05-29 12:21:00,45.0,45.0,-100.00,West,270,4.0,4.0,100,-99.99,,,-99.99,,2013-05-29 16:21:00,
2013-05-29 12:32:00,46.0,46.0,-100.00,West,270,4.0,7.0,100,-99.99,,,-99.99,,2013-05-29 16:32:00,
2013-05-29 12:42:00,46.0,46.0,-100.00,West,280,7.0,7.0,100,-99.99,,,-99.99,,2013-05-29 16:42:00,
2013-05-29 12:52:00,46.0,46.0,-100.00,WNW,290,4.0,7.0,100,-99.99,,,-99.99,,2013-05-29 16:52:00,
2013-05-29 13:02:00,47.0,47.0,-100.00,WNW,290,4.0,4.0,100,-99.99,,,-99.99,,2013-05-29 17:02:00,
2013-05-29 13:11:00,46.0,46.0,-100.00,NNW,330,4.0,7.0,100,-99.99,,,-99.99,,2013-05-29 17:11:00,
2013-05-29 13:21:00,47.0,47.0,-100.00,WNW,300,7.0,9.0,100,-99.99,,,-99.99,,2013-05-29 17:21:00,
2013-05-29 13:32:00,47.0,47.0,-100.00,WNW,300,7.0,9.0,100,-99.99,,,-99.99,,2013-05-29 17:32:00,
2013-05-29 13:42:00,48.0,48.0,-100.00,West,280,2.0,4.0,100,-99.99,,,-99.99,,2013-05-29 17:42:00,
2013-05-29 13:52:00,48.0,48.0,-100.00,West,280,2.0,4.0,100,-99.99,,,-99.99,,2013-05-29 17:52:00,
2013-05-29 14:01:00,49.0,49.0,-100.00,WSW,250,4.0,7.0,100,-99.99,,,-99.99,,2013-05-29 18:01:00,
2013-05-29 14:12:00,51.0,51.0,-100.00,WSW,240,4.0,7.0,100,-99.99,,,-99.99,,2013-05-29 18:12:00,
2013-05-29 14:21:00,51.0,51.0,-100.00,West,260,4.0,7.0,100,-99.99,,,-99.99,,2013-05-29 18:21:00,
2013-05-29 14:32:00,50.0,50.0,-100.00,WNW,300,7.0,9.0,100,-99.99,,,-99.99,,2013-05-29 18:32:00,
2013-05-29 14:41:00,46.0,46.0,-100.00,NNW,340,9.0,13.0,100,-99.99,,,-99.99,,2013-05-29 18:41:00,
2013-05-29 14:51:00,46.0,46.0,-100.00,NNW,340,9.0,13.0,100,-99.99,,,-99.99,,2013-05-29 18:51:00,
2013-05-29 15:01:00,45.0,45.0,-100.00,North,360,9.0,11.0,100,-99.99,,,-99.99,,2013-05-29 19:01:00,
2013-05-29 15:11:00,45.0,45.0,-100.00,North,360,7.0,11.0,100,-99.99,,,-99.99,,2013-05-29 19:11:00,
2013-05-29 15:21:00,47.0,47.0,-100.00,North,350,4.0,7.0,100,-99.99,,,-99.99,,2013-05-29 19:21:00,
2013-05-29 15:31:00,47.0,47.0,-100.00,North,350,4.0,7.0,100,-99.99,,,-99.99,,2013-05-29 19:31:00,
2013-05-29 15:44:00,47.0,47.0,-100.00,NW,310,2.0,4.0,100,-99.99,,,-99.99,,2013-05-29 19:44:00,
2013-05-29 15:52:00,47.0,47.0,-100.00,NW,310,2.0,4.0,100,-99.99,,,-99.99,,2013-05-29 19:52:00,
2013-05-29 16:02:00,47.0,47.0,-100.00,SSW,200,2.0,4.0,100,-99.99,,,-99.99,,2013-05-29 20:02:00,
2013-05-29 16:11:00,47.0,47.0,-100.00,SSE,150,2.0,4.0,100,-99.99,,,-99.99,,2013-05-29 20:11:00,
2013-05-29 16:22:00,46.0,46.0,-100.00,ESE,110,4.0,7.0,100,-99.99,,,-99.99,,2013-05-29 20:22:00,
2013-05-29 16:32:00,46.0,46.0,-100.00,ESE,110,4.0,7.0,100,-99.99,,,-99.99,,2013-05-29 20:32:00,
2013-05-29 16:41:00,47.0,47.0,-100.00,ENE,60,4.0,4.0,100,-99.99,,,-99.99,,2013-05-29 20:41:00,
2013-05-29 16:52:00,47.0,47.0,-100.00,ENE,60,4.0,4.0,100,-99.99,,,-99.99,,2013-05-29 20:52:00,
2013-05-29 17:02:00,47.0,47.0,-100.00,NE,50,4.0,7.0,100,-99.99,,,-99.99,,2013-05-29 21:02:00,
2013-05-29 17:12:00,49.0,49.0,-100.00,North,350,4.0,7.0,100,-99.99,,,-99.99,,2013-05-29 21:12:00,
2013-05-29 17:21:00,50.0,50.0,-100.00,ENE,60,2.0,4.0,100,-99.99,,,-99.99,,2013-05-29 21:21:00,
2013-05-29 17:33:00,50.0,50.0,-100.00,ENE,60,2.0,4.0,100,-99.99,,,-99.99,,2013-05-29 21:33:00,
2013-05-29 17:43:00,51.0,51.0,-100.00,ENE,70,4.0,4.0,100,-99.99,,,-99.99,,2013-05-29 21:43:00,
2013-05-29 17:53:00,51.0,51.0,-100.00,ENE,70,4.0,4.0,100,-99.99,,,-99.99,,2013-05-29 21:53:00,
2013-05-29 18:03:00,51.0,51.0,-100.00,NE,40,2.0,4.0,100,-99.99,,,-99.99,,2013-05-29 22:03:00,
2013-05-29 18:12:00,50.0,50.0,-100.00,NE,50,2.0,2.0,100,-99.99,,,-99.99,,2013-05-29 22:12:00,
2013-05-29 18:22:00,51.0,51.0,-100.00,NNE,30,2.0,2.0,100,-99.99,,,-99.99,,2013-05-29 22:22:00,
2013-05-29 18:33:00,51.0,51.0,-100.00,North,350,4.0,4.0,100,-99.99,,,-99.99,,2013-05-29 22:33:00,
2013-05-29 18:42:00,51.0,51.0,-100.00,North,350,2.0,4.0,100,-99.99,,,-99.99,,2013-05-29 22:42:00,
2013-05-29 18:52:00,51.0,51.0,-100.00,North,350,2.0,4.0,100,-99.99,,,-99.99,,2013-05-29 22:52:00,
2013-05-29 19:02:00,52.0,52.0,-100.00,NNE,30,2.0,4.0,100,-99.99,,,-99.99,,2013-05-29 23:02:00,
2013-05-29 19:11:00,53.0,53.0,-100.00,NNE,20,4.0,4.0,100,-99.99,,,-99.99,,2013-05-29 23:11:00,
2013-05-29 19:21:00,52.0,52.0,-100.00,NE,40,4.0,4.0,100,-99.99,,,-99.99,,2013-05-29 23:21:00,
2013-05-29 19:33:00,52.0,52.0,-100.00,East,90,2.0,4.0,100,-99.99,,,-99.99,,2013-05-29 23:33:00,
2013-05-29 19:42:00,52.0,52.0,-100.00,East,90,2.0,4.0,100,-99.99,,,-99.99,,2013-05-29 23:42:00,
2013-05-29 19:52:00,51.0,51.0,-100.00,East,90,2.0,4.0,100,-99.99,,,-99.99,,2013-05-29 23:52:00,
2013-05-29 20:01:00,51.0,51.0,-100.00,ESE,110,4.0,4.0,100,-99.99,,,-99.99,,2013-05-30 00:01:00,
2013-05-29 20:11:00,51.0,51.0,-100.00,ESE,110,4.0,4.0,100,-99.99,,,-99.99,,2013-05-30 00:11:00,
2013-05-29 20:21:00,50.0,50.0,-100.00,East,100,4.0,7.0,100,-99.99,,,-99.99,,2013-05-30 00:21:00,
2013-05-29 20:31:00,51.0,51.0,-100.00,East,90,4.0,4.0,100,-99.99,,,-99.99,,2013-05-30 00:31:00,
2013-05-29 20:41:00,51.0,51.0,-100.00,SE,130,2.0,4.0,100,-99.99,,,-99.99,,2013-05-30 00:41:00,
2013-05-29 20:52:00,51.0,51.0,-100.00,South,170,2.0,4.0,100,-99.99,,,-99.99,,2013-05-30 00:52:00,
2013-05-29 21:01:00,51.0,51.0,-100.00,SSE,150,2.0,2.0,100,-99.99,,,-99.99,,2013-05-30 01:01:00,
2013-05-29 21:11:00,51.0,51.0,-100.00,ESE,120,2.0,2.0,100,-99.99,,,-99.99,,2013-05-30 01:11:00,
2013-05-29 21:21:00,51.0,51.0,-100.00,ESE,110,2.0,2.0,100,-99.99,,,-99.99,,2013-05-30 01:21:00,
2013-05-29 21:31:00,51.0,51.0,-100.00,East,100,2.0,2.0,100,-99.99,,,-99.99,,2013-05-30 01:31:00,
2013-05-29 21:41:00,51.0,51.0,-100.00,ESE,120,2.0,2.0,100,-99.99,,,-99.99,,2013-05-30 01:41:00,
2013-05-29 21:52:00,51.0,51.0,-100.00,ESE,120,2.0,2.0,100,-99.99,,,-99.99,,2013-05-30 01:52:00,
2013-05-29 22:01:00,51.0,51.0,-100.00,ESE,110,2.0,2.0,100,-99.99,,,-99.99,,2013-05-30 02:01:00,
2013-05-29 22:11:00,51.0,51.0,-100.00,SE,130,2.0,2.0,100,-99.99,,,-99.99,,2013-05-30 02:11:00,
2013-05-29 22:21:00,51.0,51.0,-100.00,SE,140,2.0,2.0,100,-99.99,,,-99.99,,2013-05-30 02:21:00,
2013-05-29 22:31:00,51.0,51.0,-100.00,SSE,150,2.0,4.0,100,-99.99,,,-99.99,,2013-05-30 02:31:00,
2013-05-29 22:42:00,51.0,51.0,-100.00,SSE,150,2.0,4.0,100,-99.99,,,-99.99,,2013-05-30 02:42:00,
2013-05-29 22:52:00,51.0,51.0,-100.00,SSE,150,2.0,4.0,100,-99.99,,,-99.99,,2013-05-30 02:52:00,
2013-05-29 23:01:00,51.0,51.0,-100.00,SE,130,4.0,7.0,100,-99.99,,,-99.99,,2013-05-30 03:01:00,
2013-05-29 23:11:00,50.0,50.0,-100.00,ESE,120,7.0,7.0,100,-99.99,,,-99.99,,2013-05-30 03:11:00,
2013-05-29 23:21:00,49.0,49.0,-100.00,ESE,110,4.0,7.0,100,-99.99,,,-99.99,,2013-05-30 03:21:00,
2013-05-29 23:32:00,49.0,49.0,-100.00,ESE,120,7.0,7.0,100,-99.99,,,-99.99,,2013-05-30 03:32:00,
2013-05-29 23:42:00,49.0,49.0,-100.00,ESE,120,9.0,9.0,100,-99.99,,,-99.99,,2013-05-30 03:42:00,
2013-05-29 23:53:00,49.0,49.0,-100.00,ESE,120,9.0,9.0,100,-99.99,,,-99.99,,2013-05-30 03:53:00,